Nivelles, Belgium
Current Conditions -  °F | °C
As of 3:20 PM on Friday 19 Dec 2014 (Local Time) from EBCI Reporting Station
Broken Clouds Broken Clouds  
Wind Chill: 43°   Ceiling: 1500
Heat Index: 46°   Visibility: 6mi
Dew Point: 45°   Wind: 7mph
Humidity: 93%   Direction: 280°W
Pressure: 29.97"   Gusts: NA
Location:  50.6°N, 4.33°E
Report Text: EBCI 191420Z 28006KT 250V320 9999 SCT008 BKN015 08/07 Q1015 NOSIG
Loading
Personal Weather Stations






























Interactive Weather Map New forecast layout! Learn more

10-Day Weather Forecast

Advertisements
Track Severe Weather on mobile